»·PEaware :: N733AM L52-L88

N733AM :: L52-L88

FLIGHT INFORMATION

Flight Status: Arrived
Operator: Privately registered:
United States
More flights under this callsign
Pilot: Armen M. (22776)
Aircraft: CESSNA 172 SKYHAWK
(C172)
More flights by this aircraft type
Origin: L52 Oceano Co
United States
Destination: L88 New Cuyama
United States
More flights between these airports :: More routes between these airports
Route: LIMBO V64 V363 DANAH V23 OCN
File this flight plan on PilotEdge
Remarks: Sample flight plan
Altitude:
(Current/Filed)
7,500ft
Speed:
(Current/Filed)
110kts
Departed: 02-Jan-19 01:58 PM
Arrived: 02-Jan-19 02:33 PM
Distance/Time
Traveled:
46nm/0:34
Distance/Time
To Go:
Arrived

Flight Plot

Page will automatically refresh every two minutes.

Flight plan parsing failed; only flown route is shown


Map Options




Map Legend


Flown Route
Filed Route
Departure Airport
Arrival Airport
Navaid (VOR, NDB)
Fix

Horizontal Profiles

Position Reports

Time Latitude Longitude Heading Altitude Ground
Speed
02-Jan-19 13:44 35.103370 -120.624361 199 18ft 0kts
02-Jan-19 13:45 35.103364 -120.624363 197 18ft 0kts
02-Jan-19 13:46 35.103364 -120.624363 197 18ft 0kts
02-Jan-19 13:47 35.103364 -120.624363 197 18ft 0kts
02-Jan-19 13:48 35.103364 -120.624363 197 18ft 0kts
02-Jan-19 13:49 35.103364 -120.624363 197 18ft 0kts
02-Jan-19 13:50 35.103364 -120.624363 197 18ft 0kts
02-Jan-19 13:51 35.103364 -120.624363 197 18ft 0kts
02-Jan-19 13:52 35.103576 -120.625066 301 18ft 5kts
02-Jan-19 13:53 35.103032 -120.624093 121 18ft 13kts
02-Jan-19 13:54 35.101654 -120.622225 222 18ft 13kts
02-Jan-19 13:54 35.100900 -120.622020 121 18ft 0kts
02-Jan-19 13:56 35.099582 -120.619497 99 18ft 0kts
02-Jan-19 13:56 35.100051 -120.619430 300 18ft 17kts
02-Jan-19 13:58 35.106806 -120.640245 212 904ft 87kts
02-Jan-19 13:58 35.087825 -120.633530 146 1806ft 75kts
02-Jan-19 13:59 35.079974 -120.611562 90 2664ft 82kts
02-Jan-19 14:00 35.082516 -120.587424 63 3406ft 90kts
02-Jan-19 14:01 35.086299 -120.564511 98 4169ft 91kts
02-Jan-19 14:02 35.083335 -120.539815 99 4898ft 91kts
02-Jan-19 14:03 35.081212 -120.514233 81 5607ft 92kts
02-Jan-19 14:04 35.088384 -120.489012 87 6209ft 105kts
02-Jan-19 14:05 35.083539 -120.460240 104 6998ft 99kts
02-Jan-19 14:06 35.076144 -120.430386 101 7472ft 112kts
02-Jan-19 14:07 35.070307 -120.396056 95 7446ft 120kts
02-Jan-19 14:08 35.063726 -120.360052 96 7348ft 113kts
02-Jan-19 14:09 35.060641 -120.328821 95 7439ft 116kts
02-Jan-19 14:10 35.053995 -120.294414 102 7467ft 114kts
02-Jan-19 14:11 35.047251 -120.259860 96 7497ft 115kts
02-Jan-19 14:12 35.042379 -120.224949 98 7532ft 115kts
02-Jan-19 14:13 35.034918 -120.190126 101 7556ft 116kts
02-Jan-19 14:14 35.028315 -120.154222 100 7494ft 117kts
02-Jan-19 14:15 35.020710 -120.118066 98 7445ft 119kts
02-Jan-19 14:16 35.012494 -120.081950 109 7446ft 120kts
02-Jan-19 14:17 35.003352 -120.045882 102 7435ft 119kts
02-Jan-19 14:18 34.995676 -120.009251 96 7444ft 120kts
02-Jan-19 14:19 34.991999 -119.971848 96 7470ft 121kts
02-Jan-19 14:20 34.985832 -119.934153 98 7500ft 121kts
02-Jan-19 14:21 34.976536 -119.896931 112 7505ft 122kts
02-Jan-19 14:22 34.968750 -119.859596 97 7495ft 121kts
02-Jan-19 14:23 34.961217 -119.821788 101 7309ft 125kts
02-Jan-19 14:24 34.953569 -119.783961 98 7007ft 124kts
02-Jan-19 14:25 34.945409 -119.746046 106 6475ft 124kts
02-Jan-19 14:26 34.934187 -119.709113 112 5827ft 125kts
02-Jan-19 14:27 34.918918 -119.672220 118 4288ft 121kts
02-Jan-19 14:28 34.920902 -119.637422 25 3006ft 104kts
02-Jan-19 14:29 34.932472 -119.653280 263 2697ft 69kts
02-Jan-19 14:30 34.935329 -119.674271 295 2344ft 58kts
02-Jan-19 14:31 34.940517 -119.686985 296 2207ft 41kts
02-Jan-19 14:32 34.942968 -119.690955 32 2207ft 16kts
02-Jan-19 14:33 34.943370 -119.690734 207 2207ft 0kts
02-Jan-19 14:34 34.943370 -119.690734 207 2207ft 0kts
02-Jan-19 14:35 34.943370 -119.690734 207 2207ft 0kts
02-Jan-19 14:36 34.943370 -119.690734 207 2207ft 0kts
02-Jan-19 14:37 34.943370 -119.690734 207 2207ft 0kts
02-Jan-19 14:38 34.943370 -119.690734 207 2207ft 0kts
02-Jan-19 14:39 34.943370 -119.690734 207 2207ft 0kts
02-Jan-19 14:40 34.943370 -119.690734 207 2207ft 0kts
02-Jan-19 14:41 34.943370 -119.690734 207 2207ft 0kts
02-Jan-19 14:42 34.943342 -119.690752 209 2207ft 4kts
02-Jan-19 14:43 34.942121 -119.690913 113 2207ft 18kts
02-Jan-19 14:44 34.935244 -119.668026 61 2868ft 93kts
02-Jan-19 14:45 34.952508 -119.674940 296 3057ft 95kts
02-Jan-19 14:46 34.964221 -119.695145 294 2927ft 72kts

Navigation Log

Ident Type
Flight plan parsing failed, navigation log unavailable